Time;durP1;ratioP1;P1;durP2;ratioP2;P2;SDS_P1;SDS_P2;PMS_P1;PMS_P2;Temp;Humidity;BMP_temperature;BMP_pressure;BME280_temperature;BME280_humidity;BME280_pressure;Samples;Min_cycle;Max_cycle;Signal;HPM_P1;HPM_P2
2022/10/11 00:00:43;;;;;;;24.73;22.27;;;;;;;17.56;73.58;102071.25;5009572;28;103830;-53
2022/10/11 00:03:09;;;;;;;23.58;20.63;;;;;;;17.57;73.66;102067.41;5017771;28;102039;-53
2022/10/11 00:05:36;;;;;;;22.77;18.63;;;;;;;17.56;73.45;102060.22;5003383;28;102011;-53
2022/10/11 00:08:04;;;;;;;23.77;21.17;;;;;;;17.57;73.38;102059.16;4998878;28;102879;-53
2022/10/11 00:10:34;;;;;;;23.73;20.52;;;;;;;17.56;73.67;102066.56;5008001;28;103963;-53
2022/10/11 00:13:01;;;;;;;21.83;19.92;;;;;;;17.54;73.30;102064.09;5017792;28;102030;-53
2022/10/11 00:15:28;;;;;;;20.67;18.63;;;;;;;17.56;73.62;102058.31;5017206;28;102053;-53
2022/10/11 00:17:55;;;;;;;22.23;20.17;;;;;;;17.54;73.33;102053.09;5018698;28;102174;-53
2022/10/11 00:20:22;;;;;;;22.67;20.75;;;;;;;17.56;73.71;102057.47;4996741;28;108323;-56
2022/10/11 00:22:49;;;;;;;20.73;18.88;;;;;;;17.54;73.21;102061.34;4990338;28;102127;-54
2022/10/11 00:25:16;;;;;;;22.15;20.15;;;;;;;17.55;73.15;102059.41;5006331;28;102399;-54
2022/10/11 00:27:44;;;;;;;23.90;21.00;;;;;;;17.54;72.91;102058.59;5008280;28;103136;-54
2022/10/11 00:30:12;;;;;;;24.33;21.42;;;;;;;17.52;72.76;102058.03;5009741;28;103981;-52
2022/10/11 00:32:39;;;;;;;21.38;19.35;;;;;;;17.53;73.30;102062.47;5011967;28;102223;-53
2022/10/11 00:35:06;;;;;;;29.23;19.17;;;;;;;17.53;73.64;102056.16;5012320;28;102355;-53
2022/10/11 00:37:34;;;;;;;29.70;20.95;;;;;;;17.50;73.02;102054.78;5005772;28;102754;-53
2022/10/11 00:40:02;;;;;;;32.35;19.88;;;;;;;17.48;73.50;102056.97;5016241;28;103959;-53
2022/10/11 00:42:28;;;;;;;22.38;18.95;;;;;;;17.48;73.19;102048.72;5015387;28;102511;-53
2022/10/11 00:45:28;;;;;;;22.95;19.50;;;;;;;17.46;73.15;102050.13;5009538;28;102124;-53
2022/10/11 00:47:59;;;;;;;23.42;21.20;;;;;;;17.46;73.16;102045.44;5012188;28;102456;-53
2022/10/11 00:50:29;;;;;;;23.25;21.23;;;;;;;17.45;72.89;102038.28;5014423;28;103863;-53
2022/10/11 00:53:00;;;;;;;21.83;19.65;;;;;;;17.45;72.93;102040.22;5011108;28;103563;-53
2022/10/11 00:55:32;;;;;;;26.42;20.00;;;;;;;17.43;72.81;102037.75;5008863;28;102303;-53
2022/10/11 00:57:59;;;;;;;22.17;18.25;;;;;;;17.43;72.91;102045.19;4996144;28;102464;-53
2022/10/11 01:00:26;;;;;;;20.95;19.00;;;;;;;17.42;72.61;102038.06;4990283;28;103749;-53
2022/10/11 01:02:54;;;;;;;20.98;18.70;;;;;;;17.42;73.03;102027.88;4995171;28;102266;-53
2022/10/11 01:05:22;;;;;;;20.95;18.77;;;;;;;17.42;73.11;102030.63;5007190;28;102084;-53
2022/10/11 01:07:50;;;;;;;21.75;19.75;;;;;;;17.41;73.02;102028.13;5003598;28;102473;-53
2022/10/11 01:10:18;;;;;;;21.70;19.55;;;;;;;17.41;72.79;102026.19;4996891;28;103810;-53
2022/10/11 01:13:00;;;;;;;22.60;20.35;;;;;;;17.39;72.69;102027.63;5000607;28;102158;-53
2022/10/11 01:15:37;;;;;;;21.38;19.75;;;;;;;17.38;72.62;102026.78;5006331;28;102137;-53
2022/10/11 01:18:13;;;;;;;21.40;19.30;;;;;;;17.38;72.82;102021.28;5017924;28;102315;-53
2022/10/11 01:20:54;;;;;;;20.55;18.50;;;;;;;17.37;72.78;102025.13;5014987;28;103926;-53
2022/10/11 01:23:58;;;;;;;21.65;19.85;;;;;;;17.38;72.60;102026.78;5016895;28;102375;-53
2022/10/11 01:27:06;;;;;;;19.67;17.88;;;;;;;17.36;73.22;102029.00;5015890;28;102032;-53
2022/10/11 01:29:45;;;;;;;20.02;17.77;;;;;;;17.36;72.67;102028.19;4994080;28;102648;-53
2022/10/11 01:32:17;;;;;;;18.63;17.33;;;;;;;17.35;72.56;102021.84;4984131;28;104073;-53
2022/10/11 01:34:51;;;;;;;17.52;16.13;;;;;;;17.36;72.94;102028.19;4985398;28;102162;-53
2022/10/11 01:37:24;;;;;;;20.65;18.77;;;;;;;17.35;72.92;102023.78;4984463;28;102391;-53
2022/10/11 01:39:58;;;;;;;21.27;19.48;;;;;;;17.35;72.98;102021.84;4981290;28;102170;-53
2022/10/11 01:42:26;;;;;;;19.50;17.83;;;;;;;17.34;72.74;102028.44;4989678;28;103889;-53
2022/10/11 01:44:56;;;;;;;20.83;19.13;;;;;;;17.35;72.66;102032.06;4995482;28;101914;-53
2022/10/11 01:47:25;;;;;;;22.25;20.50;;;;;;;17.34;72.88;102022.94;4996119;28;102359;-53
2022/10/11 01:49:53;;;;;;;20.55;18.75;;;;;;;17.32;72.95;102025.19;4996010;28;102335;-53
2022/10/11 01:52:21;;;;;;;21.70;19.88;;;;;;;17.33;72.65;102017.75;4995758;28;103962;-53
2022/10/11 01:55:08;;;;;;;20.60;19.10;;;;;;;17.32;73.01;102016.09;4995586;28;103844;-53
2022/10/11 01:57:47;;;;;;;18.75;17.35;;;;;;;17.32;72.76;102022.44;4976046;28;102232;-53
2022/10/11 02:00:17;;;;;;;19.52;18.10;;;;;;;17.32;72.97;102019.69;4994771;28;102033;-53
2022/10/11 02:03:06;;;;;;;21.50;19.90;;;;;;;17.31;72.91;102020.78;4995112;28;104060;-53
2022/10/11 02:05:41;;;;;;;20.85;19.30;;;;;;;17.31;73.24;102018.03;4976400;28;102201;-53
2022/10/11 02:08:17;;;;;;;18.95;17.42;;;;;;;17.31;72.72;102023.53;4977524;28;102483;-53
2022/10/11 02:10:48;;;;;;;19.58;18.15;;;;;;;17.31;72.47;102023.53;4996809;28;103079;-53
2022/10/11 02:13:22;;;;;;;19.90;18.30;;;;;;;17.31;72.79;102015.28;4990619;28;103934;-53
2022/10/11 02:15:51;;;;;;;21.05;19.33;;;;;;;17.29;73.22;102023.81;4976593;28;102177;-53
2022/10/11 02:18:24;;;;;;;21.98;20.42;;;;;;;17.30;73.15;102019.13;4977282;28;102134;-53
2022/10/11 02:20:52;;;;;;;20.45;19.08;;;;;;;17.29;73.10;102021.06;4995945;28;102235;-53
2022/10/11 02:23:25;;;;;;;21.17;19.73;;;;;;;17.29;72.77;102023.00;4994227;28;103850;-53
2022/10/11 02:25:55;;;;;;;20.52;18.95;;;;;;;17.30;72.67;102024.63;4984959;28;102359;-53
2022/10/11 02:28:25;;;;;;;22.55;20.85;;;;;;;17.29;72.70;102023.00;4974843;28;102602;-53
2022/10/11 02:30:53;;;;;;;20.88;19.38;;;;;;;17.28;73.26;102026.84;4976892;28;102216;-55
2022/10/11 02:33:30;;;;;;;21.70;20.13;;;;;;;17.29;73.31;102028.50;4975360;28;103874;-53
2022/10/11 02:36:01;;;;;;;19.00;17.67;;;;;;;17.28;73.01;102024.09;4990699;28;102254;-53
2022/10/11 02:38:34;;;;;;;19.48;18.02;;;;;;;17.29;72.79;102020.25;4995646;28;101985;-53
2022/10/11 02:41:08;;;;;;;20.30;18.73;;;;;;;17.28;73.15;102026.84;4993179;28;102228;-53
2022/10/11 02:43:40;;;;;;;19.88;18.52;;;;;;;17.27;72.69;102019.69;4979560;28;103864;-52
2022/10/11 02:46:09;;;;;;;22.40;20.92;;;;;;;17.26;73.12;102018.88;4991992;28;104989;-53
2022/10/11 02:48:38;;;;;;;;;;;;;;;17.26;72.72;102013.38;4981176;28;101999;-53
2022/10/11 02:51:05;;;;;;;15.13;13.77;;;;;;;17.27;73.18;102025.19;4976567;28;102294;-53
2022/10/11 02:53:32;;;;;;;19.10;17.70;;;;;;;17.25;73.16;102020.00;4975028;28;103824;-53
2022/10/11 02:55:59;;;;;;;19.52;18.05;;;;;;;17.26;72.80;102012.56;4983876;28;102214;-53
2022/10/11 02:58:25;;;;;;;18.88;17.58;;;;;;;17.26;72.62;102007.03;4995241;28;102405;-53
2022/10/11 03:00:52;;;;;;;19.23;17.83;;;;;;;17.26;72.64;102012.56;4992965;28;103626;-53
2022/10/11 03:03:18;;;;;;;19.98;18.40;;;;;;;17.25;72.98;102008.16;5001206;28;103911;-53
2022/10/11 03:05:48;;;;;;;20.42;18.83;;;;;;;17.25;73.23;102008.16;5014929;28;102182;-53
2022/10/11 03:08:16;;;;;;;19.73;18.23;;;;;;;17.24;72.63;102004.59;5014095;28;102260;-53
2022/10/11 03:10:43;;;;;;;18.67;17.27;;;;;;;17.24;72.64;102004.59;5016512;28;102360;-53
2022/10/11 03:13:09;;;;;;;20.80;19.40;;;;;;;17.24;72.57;102003.78;5008625;28;103838;-54
2022/10/11 03:15:38;;;;;;;19.25;17.90;;;;;;;17.24;72.56;102001.03;4995826;28;102152;-58
2022/10/11 03:18:05;;;;;;;20.77;19.38;;;;;;;17.23;73.04;102002.13;4994793;28;102207;-53
2022/10/11 03:20:32;;;;;;;20.27;18.92;;;;;;;17.23;72.71;102002.94;5004473;28;102751;-53
2022/10/11 03:23:00;;;;;;;17.92;16.73;;;;;;;17.23;73.08;102002.13;5017038;28;104235;-53
2022/10/11 03:25:27;;;;;;;20.05;18.63;;;;;;;17.23;72.54;102013.94;5015350;28;102215;-53
2022/10/11 03:27:54;;;;;;;20.30;18.88;;;;;;;17.23;72.73;102013.13;5006249;28;102211;-53
2022/10/11 03:30:20;;;;;;;22.15;20.65;;;;;;;17.23;72.67;102008.44;5018763;28;102118;-53
2022/10/11 03:32:47;;;;;;;20.48;18.98;;;;;;;17.22;72.59;102005.97;5016306;28;103867;-53
2022/10/11 03:35:13;;;;;;;20.30;18.98;;;;;;;17.22;72.99;102008.72;5017920;28;102753;-53
2022/10/11 03:37:40;;;;;;;19.23;17.90;;;;;;;17.23;72.56;102007.63;5014865;28;102017;-53
2022/10/11 03:40:10;;;;;;;19.55;18.27;;;;;;;17.22;73.12;102008.72;5018188;28;102278;-53
2022/10/11 03:42:37;;;;;;;19.48;18.27;;;;;;;17.21;72.79;102009.84;5016607;28;103933;-53
2022/10/11 03:45:07;;;;;;;18.52;17.33;;;;;;;17.21;72.39;102002.41;5018035;28;102135;-53
2022/10/11 03:47:33;;;;;;;20.95;19.55;;;;;;;17.20;72.59;102003.53;5016256;28;102472;-53
2022/10/11 03:50:00;;;;;;;20.55;19.05;;;;;;;17.21;73.05;102001.59;4998528;28;102397;-53
2022/10/11 03:52:26;;;;;;;17.65;16.48;;;;;;;17.20;72.74;101997.19;5007041;28;104005;-53
2022/10/11 03:54:53;;;;;;;18.13;16.98;;;;;;;17.20;72.74;102002.69;5015685;28;102635;-53
2022/10/11 03:57:21;;;;;;;21.00;19.80;;;;;;;17.20;72.48;101999.94;5005812;28;102324;-53
2022/10/11 03:59:47;;;;;;;19.75;18.45;;;;;;;17.19;72.44;101996.34;5018489;28;102248;-53
2022/10/11 04:02:14;;;;;;;21.42;19.83;;;;;;;17.19;72.70;101995.53;5008334;28;103685;-54
2022/10/11 04:04:40;;;;;;;20.02;18.52;;;;;;;17.19;72.58;102001.03;5017083;28;102355;-53
2022/10/11 04:07:08;;;;;;;18.77;17.38;;;;;;;17.19;72.87;102006.53;5008282;28;102228;-52
2022/10/11 04:09:34;;;;;;;17.90;16.70;;;;;;;17.19;72.67;102006.53;5007563;28;102460;-53
2022/10/11 04:12:02;;;;;;;21.52;20.15;;;;;;;17.19;72.80;102012.03;4997202;28;103965;-53
2022/10/11 04:14:33;;;;;;;19.13;17.77;;;;;;;17.19;72.89;102014.78;4998274;28;102446;-53
2022/10/11 04:17:00;;;;;;;20.52;19.13;;;;;;;17.19;72.59;102017.53;5004535;28;102237;-53
2022/10/11 04:19:27;;;;;;;19.23;18.00;;;;;;;17.19;73.14;102014.78;4997479;28;102197;-53
2022/10/11 04:21:53;;;;;;;19.52;18.25;;;;;;;17.17;72.86;102020.59;4996522;28;104120;-53
2022/10/11 04:24:20;;;;;;;21.35;19.92;;;;;;;17.18;72.66;102026.91;4998253;28;102750;-53
2022/10/11 04:26:46;;;;;;;19.23;17.98;;;;;;;17.18;72.62;102015.91;4996856;28;102710;-53
2022/10/11 04:29:13;;;;;;;20.77;19.48;;;;;;;17.16;72.90;102024.44;5003488;28;102262;-53
2022/10/11 04:31:41;;;;;;;20.15;18.95;;;;;;;17.16;73.08;102024.44;5016816;28;103888;-53
2022/10/11 04:34:07;;;;;;;17.23;15.93;;;;;;;17.17;72.78;102031.59;5015086;28;102329;-54
2022/10/11 04:36:34;;;;;;;18.73;17.10;;;;;;;17.17;72.47;102030.78;5009080;28;102154;-53
2022/10/11 04:39:00;;;;;;;19.02;17.83;;;;;;;17.17;72.97;102036.28;4997971;28;102596;-53
2022/10/11 04:41:28;;;;;;;19.75;18.35;;;;;;;17.17;72.34;102041.78;4999509;28;103823;-53
2022/10/11 04:43:55;;;;;;;18.48;17.27;;;;;;;17.16;72.45;102040.94;5003878;28;102012;-54
2022/10/11 04:46:21;;;;;;;19.52;18.30;;;;;;;17.16;72.92;102040.13;4996843;28;101893;-53
2022/10/11 04:48:49;;;;;;;19.85;18.55;;;;;;;17.16;72.78;102035.44;4995409;28;102835;-53
2022/10/11 04:51:16;;;;;;;18.45;17.33;;;;;;;17.15;72.66;102039.31;4996209;28;103726;-53
2022/10/11 04:53:43;;;;;;;16.27;15.25;;;;;;;17.16;72.41;102035.44;4999722;28;102446;-53
2022/10/11 04:56:10;;;;;;;18.55;17.45;;;;;;;17.17;72.25;102039.03;5008669;28;102893;-53
2022/10/11 04:58:41;;;;;;;20.48;19.17;;;;;;;17.17;72.72;102047.28;5005387;28;102420;-53
2022/10/11 05:01:09;;;;;;;18.90;17.70;;;;;;;17.17;72.51;102039.03;5001417;28;103897;-53
2022/10/11 05:03:36;;;;;;;20.88;19.58;;;;;;;17.17;72.61;102042.59;4998564;28;102175;-54
2022/10/11 05:06:04;;;;;;;20.13;18.67;;;;;;;17.18;73.52;102046.16;4996174;28;102305;-53
2022/10/11 05:08:31;;;;;;;;;;;;;;;17.19;72.86;102056.88;4988270;28;102353;-53
2022/10/11 05:11:00;;;;;;;14.25;13.13;;;;;;;17.22;73.29;102044.50;5006895;28;103046;-53
2022/10/11 05:13:28;;;;;;;18.15;17.02;;;;;;;17.24;73.64;102053.31;5010908;28;102374;-53
2022/10/11 05:15:54;;;;;;;16.58;15.45;;;;;;;17.24;73.67;102056.06;4994702;28;105362;-53
2022/10/11 05:18:22;;;;;;;18.33;17.15;;;;;;;17.24;73.68;102042.28;5004602;28;102135;-53
2022/10/11 05:20:58;;;;;;;18.13;16.88;;;;;;;17.25;74.70;102049.44;4987439;28;103836;-53
2022/10/11 05:23:26;;;;;;;18.50;17.10;;;;;;;17.26;74.67;102060.13;4985798;28;104786;-53
2022/10/11 05:25:53;;;;;;;19.02;17.50;;;;;;;17.27;74.50;102055.47;4980328;28;102219;-53
2022/10/11 05:28:21;;;;;;;17.10;15.98;;;;;;;17.26;74.64;102062.06;4997035;28;102617;-53
2022/10/11 05:30:49;;;;;;;16.73;15.43;;;;;;;17.24;74.64;102059.63;4995264;28;104104;-53
2022/10/11 05:33:16;;;;;;;17.42;16.23;;;;;;;17.26;74.23;102053.81;4995855;28;102168;-53
2022/10/11 05:35:43;;;;;;;15.70;14.65;;;;;;;17.24;73.85;102058.81;5003879;28;102087;-53
2022/10/11 05:38:10;;;;;;;17.20;16.15;;;;;;;17.24;73.75;102053.31;5004502;28;102475;-53
2022/10/11 05:40:38;;;;;;;18.05;16.73;;;;;;;17.23;73.48;102057.94;4995956;28;103906;-53
2022/10/11 05:43:06;;;;;;;16.38;15.20;;;;;;;17.23;73.12;102051.63;5004694;28;102403;-53
2022/10/11 05:45:35;;;;;;;17.05;16.00;;;;;;;17.22;73.43;102053.56;5016556;28;102490;-53
2022/10/11 05:48:01;;;;;;;16.25;15.15;;;;;;;17.23;73.11;102051.63;5003431;28;102354;-53
2022/10/11 05:50:28;;;;;;;19.27;17.92;;;;;;;17.22;72.77;102052.75;5015618;28;104280;-53
2022/10/11 05:52:55;;;;;;;18.38;17.00;;;;;;;17.21;72.99;102060.19;5016616;28;102348;-53
2022/10/11 05:55:22;;;;;;;18.13;16.92;;;;;;;17.23;72.97;102062.63;5015992;28;101908;-53
2022/10/11 05:57:52;;;;;;;17.95;16.83;;;;;;;17.22;72.89;102058.25;5016643;28;102191;-53
2022/10/11 06:00:19;;;;;;;16.98;15.73;;;;;;;17.22;72.82;102061.00;5007897;28;104019;-54
2022/10/11 06:02:45;;;;;;;17.60;16.50;;;;;;;17.23;73.11;102062.63;4999447;28;102070;-53
2022/10/11 06:05:13;;;;;;;17.45;16.42;;;;;;;17.21;72.67;102057.44;5015927;27;102168;-53
2022/10/11 06:07:40;;;;;;;18.13;16.92;;;;;;;17.20;72.71;102058.53;5016781;28;102228;-53
2022/10/11 06:10:07;;;;;;;18.75;17.55;;;;;;;17.21;72.60;102060.19;5015085;28;104051;-53
2022/10/11 06:12:34;;;;;;;18.10;17.02;;;;;;;17.20;73.22;102058.53;4995823;28;102296;-53
2022/10/11 06:15:03;;;;;;;17.98;16.83;;;;;;;17.21;73.11;102053.88;5003608;28;102235;-53
2022/10/11 06:17:30;;;;;;;19.48;18.15;;;;;;;17.20;72.82;102058.53;5016360;28;102230;-53
2022/10/11 06:19:57;;;;;;;16.15;15.05;;;;;;;17.22;73.35;102055.50;5014244;28;104095;-53
2022/10/11 06:22:23;;;;;;;19.90;18.65;;;;;;;17.22;73.54;102050.00;5015635;28;102037;-53
2022/10/11 06:24:50;;;;;;;19.20;17.92;;;;;;;17.23;73.11;102046.13;5014173;28;102327;-53
2022/10/11 06:27:16;;;;;;;17.80;16.70;;;;;;;17.22;72.96;102050.00;5013725;28;102658;-53
2022/10/11 06:29:43;;;;;;;18.20;16.90;;;;;;;17.22;73.31;102061.00;5001705;28;104108;-53
2022/10/11 06:32:12;;;;;;;17.98;16.77;;;;;;;17.23;73.35;102054.38;4996067;28;102076;-53
2022/10/11 06:34:38;;;;;;;18.38;17.27;;;;;;;17.24;73.01;102053.31;5014304;28;102118;-53
2022/10/11 06:37:06;;;;;;;16.92;15.73;;;;;;;17.24;73.50;102053.31;5015569;28;102053;-53
2022/10/11 06:39:33;;;;;;;17.77;16.53;;;;;;;17.24;72.98;102058.81;5014991;28;104284;-53
2022/10/11 06:42:00;;;;;;;17.27;16.25;;;;;;;17.24;73.25;102065.13;5006201;28;102212;-52
2022/10/11 06:44:26;;;;;;;20.10;18.80;;;;;;;17.24;73.09;102056.88;5010043;28;102237;-53
2022/10/11 06:46:53;;;;;;;17.70;16.50;;;;;;;17.24;73.28;102053.31;5015590;28;102160;-53
2022/10/11 06:49:21;;;;;;;18.67;17.45;;;;;;;17.25;73.37;102061.25;5013907;28;103767;-53
2022/10/11 06:51:47;;;;;;;17.43;16.33;;;;;;;17.26;73.14;102062.06;5016361;28;102283;-53
2022/10/11 06:54:14;;;;;;;16.80;15.73;;;;;;;17.26;72.76;102064.81;5015145;28;102227;-53
2022/10/11 06:56:40;;;;;;;18.60;17.48;;;;;;;17.26;72.92;102062.06;5015827;28;102436;-53
2022/10/11 06:59:07;;;;;;;16.65;15.63;;;;;;;17.27;72.98;102053.56;5015078;28;103986;-53
2022/10/11 07:01:34;;;;;;;17.80;16.65;;;;;;;17.29;72.72;102056.00;5015361;28;102274;-53
2022/10/11 07:04:01;;;;;;;17.20;16.00;;;;;;;17.29;72.98;102061.50;5014950;28;101993;-53
2022/10/11 07:06:36;;;;;;;18.00;16.90;;;;;;;17.31;72.72;102053.81;5009239;28;102056;-53
2022/10/11 07:09:03;;;;;;;18.88;17.73;;;;;;;17.32;72.69;102060.94;4994343;28;104110;-53
2022/10/11 07:11:30;;;;;;;16.55;15.55;;;;;;;17.33;72.66;102056.25;5008685;28;102149;-53
2022/10/11 07:14:01;;;;;;;17.58;16.38;;;;;;;17.33;72.86;102056.25;5013956;28;102376;-53
2022/10/11 07:16:32;;;;;;;19.70;18.13;;;;;;;17.35;72.81;102057.63;4995764;28;102417;-53
2022/10/11 07:19:03;;;;;;;16.50;15.35;;;;;;;17.36;72.81;102056.53;4997786;28;104300;-53
2022/10/11 07:21:31;;;;;;;16.98;15.88;;;;;;;17.36;72.73;102056.53;5004016;28;102180;-53
2022/10/11 07:23:59;;;;;;;19.17;18.08;;;;;;;17.38;72.92;102062.56;4994189;28;102221;-53
2022/10/11 07:26:26;;;;;;;16.88;15.77;;;;;;;17.39;72.89;102061.47;4994460;28;102299;-53
2022/10/11 07:28:52;;;;;;;16.40;15.40;;;;;;;17.40;73.01;102063.09;5002835;28;103911;-53
2022/10/11 07:31:21;;;;;;;17.60;16.40;;;;;;;17.42;72.90;102058.13;5005438;28;102107;-53
2022/10/11 07:33:48;;;;;;;17.30;16.20;;;;;;;17.42;72.84;102049.06;5009439;28;102083;-53
2022/10/11 07:36:14;;;;;;;16.65;15.55;;;;;;;17.44;72.46;102052.34;4995833;28;102337;-53
2022/10/11 07:38:42;;;;;;;18.23;17.02;;;;;;;17.44;72.88;102047.66;5005858;28;103902;-53
2022/10/11 07:41:10;;;;;;;16.88;15.68;;;;;;;17.44;73.00;102052.34;5014217;28;102426;-53
2022/10/11 07:43:38;;;;;;;17.33;15.93;;;;;;;17.44;72.51;102053.16;4996927;28;102440;-53
2022/10/11 07:46:05;;;;;;;15.95;14.98;;;;;;;17.45;72.79;102048.47;5013370;28;102432;-53
2022/10/11 07:48:33;;;;;;;17.38;16.30;;;;;;;17.47;72.92;102041.59;4997309;28;104076;-53
2022/10/11 07:51:05;;;;;;;15.10;14.18;;;;;;;17.49;72.54;102044.03;5009450;28;102356;-53
2022/10/11 07:53:36;;;;;;;16.30;15.30;;;;;;;17.48;72.83;102048.72;5007713;28;102319;-53
2022/10/11 07:56:03;;;;;;;16.38;15.32;;;;;;;17.50;72.77;102046.53;5006531;28;103000;-54
2022/10/11 07:58:30;;;;;;;17.33;16.25;;;;;;;17.51;72.71;102050.91;4999146;28;104298;-53
2022/10/11 08:00:57;;;;;;;16.80;15.70;;;;;;;17.53;72.35;102045.94;5008527;28;102281;-53
2022/10/11 08:03:24;;;;;;;17.48;16.38;;;;;;;17.54;72.34;102047.59;4999332;28;102161;-53
2022/10/11 08:05:51;;;;;;;16.10;15.10;;;;;;;17.54;72.74;102036.56;5006275;28;102679;-53
2022/10/11 08:08:18;;;;;;;17.17;16.15;;;;;;;17.54;72.33;102039.31;5008429;28;103934;-53
2022/10/11 08:10:48;;;;;;;18.05;17.00;;;;;;;17.56;72.22;102038.22;5006007;28;102280;-53
2022/10/11 08:13:14;;;;;;;18.15;17.05;;;;;;;17.56;72.76;102047.28;4999345;28;102200;-53
2022/10/11 08:15:42;;;;;;;19.35;18.17;;;;;;;17.57;72.26;102040.69;4998727;28;102198;-53
2022/10/11 08:18:09;;;;;;;19.08;17.92;;;;;;;17.58;72.08;102041.50;5003008;28;103979;-53
2022/10/11 08:20:37;;;;;;;17.42;16.42;;;;;;;17.59;72.10;102048.66;5007034;28;102579;-53
2022/10/11 08:23:04;;;;;;;18.98;17.88;;;;;;;17.60;72.53;102040.13;4997025;28;102011;-58
2022/10/11 08:25:35;;;;;;;18.70;17.40;;;;;;;17.62;71.97;102042.59;5016033;28;102182;-53
2022/10/11 08:28:04;;;;;;;19.52;18.42;;;;;;;17.63;72.37;102041.47;5016955;27;103929;-53
2022/10/11 08:30:31;;;;;;;19.65;18.52;;;;;;;17.64;72.44;102040.38;5017168;28;102442;-53
2022/10/11 08:32:59;;;;;;;19.20;18.13;;;;;;;17.61;71.94;102032.69;5016795;28;101967;-53
2022/10/11 08:35:26;;;;;;;19.38;18.27;;;;;;;17.62;72.23;102037.06;4998080;28;102235;-53
2022/10/11 08:37:52;;;;;;;18.23;17.02;;;;;;;17.62;71.97;102034.31;5011065;28;103810;-56
2022/10/11 08:40:21;;;;;;;20.15;18.95;;;;;;;17.63;72.25;102033.19;5008068;28;102482;-53
2022/10/11 08:42:57;;;;;;;19.75;18.65;;;;;;;17.63;71.77;102028.50;5016950;28;102379;-53
2022/10/11 08:45:31;;;;;;;19.02;17.92;;;;;;;17.66;71.44;102029.88;5012205;28;102776;-53
2022/10/11 08:48:11;;;;;;;19.85;18.75;;;;;;;17.65;71.54;102033.75;5009810;28;108158;-54
2022/10/11 08:50:38;;;;;;;19.40;18.30;;;;;;;17.68;71.26;102028.50;5017401;28;101918;-53
2022/10/11 08:53:14;;;;;;;20.63;19.52;;;;;;;17.68;71.57;102024.94;5008696;28;102367;-53
2022/10/11 08:55:46;;;;;;;19.08;18.02;;;;;;;17.67;71.59;102024.09;5013673;28;102114;-53
2022/10/11 08:58:16;;;;;;;20.95;19.83;;;;;;;17.66;71.55;102021.63;5002679;28;103938;-53
2022/10/11 09:00:47;;;;;;;18.60;17.60;;;;;;;17.66;71.53;102016.13;4995057;28;102701;-53
2022/10/11 09:03:25;;;;;;;20.13;18.92;;;;;;;17.66;71.38;102011.44;4996914;28;102176;-54
2022/10/11 09:06:05;;;;;;;21.83;20.58;;;;;;;17.67;71.22;102010.34;4998601;28;102833;-53
2022/10/11 09:08:45;;;;;;;21.38;20.17;;;;;;;17.68;71.30;102011.16;4982370;28;103991;-53
2022/10/11 09:11:23;;;;;;;20.60;19.40;;;;;;;17.66;71.25;102011.44;4998814;28;102928;-53
2022/10/11 09:14:16;;;;;;;20.67;19.52;;;;;;;17.69;71.26;102010.03;4995830;28;102204;-53
2022/10/11 09:16:58;;;;;;;20.38;19.17;;;;;;;17.66;70.96;102002.34;4990020;28;102342;-53
2022/10/11 09:19:59;;;;;;;20.35;19.15;;;;;;;17.62;71.68;102002.09;4974896;28;108121;-53
2022/10/11 09:22:36;;;;;;;19.60;18.58;;;;;;;17.63;71.43;102001.00;4974276;28;102343;-53
2022/10/11 09:25:17;;;;;;;17.85;16.85;;;;;;;17.63;70.89;102000.16;5014391;28;102195;-53
2022/10/11 09:27:53;;;;;;;20.85;19.65;;;;;;;17.63;70.92;102000.16;4977919;28;102212;-53
2022/10/11 09:30:20;;;;;;;21.33;20.13;;;;;;;17.62;71.12;101982.03;4983059;28;104066;-53
2022/10/11 09:32:57;;;;;;;20.30;19.25;;;;;;;17.63;70.62;101984.47;4981813;28;102058;-53
2022/10/11 09:35:27;;;;;;;22.10;20.90;;;;;;;17.63;70.71;101989.16;4990154;28;102173;-53
2022/10/11 09:38:03;;;;;;;24.48;22.90;;;;;;;17.61;71.03;101983.97;4989610;28;102644;-53
2022/10/11 09:40:38;;;;;;;19.58;18.45;;;;;;;17.62;71.22;101982.03;4987125;28;104149;-53
2022/10/11 09:43:08;;;;;;;20.63;19.45;;;;;;;17.61;70.51;101974.88;4985492;28;102366;-53
2022/10/11 09:45:35;;;;;;;21.55;20.35;;;;;;;17.61;70.98;101970.19;4994404;28;101998;-53
2022/10/11 09:48:05;;;;;;;20.95;19.83;;;;;;;17.59;70.83;101979.84;4996402;28;102572;-53
2022/10/11 09:50:32;;;;;;;21.42;20.27;;;;;;;17.58;70.83;101964.44;4977808;28;104041;-53
2022/10/11 09:53:03;;;;;;;23.58;22.27;;;;;;;17.57;70.64;101969.13;4982048;28;102054;-53
2022/10/11 09:55:37;;;;;;;19.65;18.63;;;;;;;17.57;70.27;101968.31;4990804;28;102762;-53
2022/10/11 09:58:22;;;;;;;21.67;20.48;;;;;;;17.56;70.60;101975.72;4991191;28;102427;-53
2022/10/11 10:00:56;;;;;;;22.85;21.58;;;;;;;17.54;70.76;101965.00;4988978;28;103938;-53
2022/10/11 10:03:27;;;;;;;22.80;21.60;;;;;;;17.56;70.24;101959.22;4996162;28;102345;-53
2022/10/11 10:06:05;;;;;;;21.23;20.02;;;;;;;17.55;70.23;101957.56;4988523;28;102042;-53
2022/10/11 10:08:35;;;;;;;22.83;21.52;;;;;;;17.54;70.48;101953.19;4996871;28;102489;-53
2022/10/11 10:11:04;;;;;;;23.60;22.40;;;;;;;17.52;70.38;101945.19;4975880;28;104217;-53
2022/10/11 10:13:38;;;;;;;;;;;;;;;17.51;70.75;101949.06;4986372;28;102749;-53
2022/10/11 10:16:19;;;;;;;17.45;16.40;;;;;;;17.50;70.54;101947.44;4980966;28;102144;-53
2022/10/11 10:18:50;;;;;;;20.80;19.70;;;;;;;17.49;70.01;101940.28;4985612;28;102384;-53
2022/10/11 10:21:24;;;;;;;20.98;19.90;;;;;;;17.49;69.82;101940.28;4984622;28;103919;-53
2022/10/11 10:23:56;;;;;;;21.80;20.73;;;;;;;17.49;70.14;101937.53;4990581;28;103069;-53
2022/10/11 10:26:24;;;;;;;21.80;20.60;;;;;;;17.48;70.21;101938.63;4983085;28;102444;-53
2022/10/11 10:28:57;;;;;;;22.38;21.17;;;;;;;17.48;70.34;101933.13;4984543;28;102249;-53
2022/10/11 10:31:28;;;;;;;23.00;21.80;;;;;;;17.48;70.36;101943.31;4977228;28;103960;-53
2022/10/11 10:33:56;;;;;;;24.65;23.35;;;;;;;17.46;70.34;101940.88;4977428;28;102379;-53
2022/10/11 10:36:28;;;;;;;23.50;22.20;;;;;;;17.46;70.75;101924.34;4993528;28;102278;-53
2022/10/11 10:39:04;;;;;;;21.30;20.20;;;;;;;17.46;70.07;101929.84;4980242;28;102333;-53
2022/10/11 10:41:31;;;;;;;21.10;19.95;;;;;;;17.45;70.40;101928.19;4990487;28;108158;-53
2022/10/11 10:43:59;;;;;;;21.13;20.02;;;;;;;17.45;70.13;101911.69;4995670;28;101951;-53
2022/10/11 10:46:55;;;;;;;22.50;21.30;;;;;;;17.46;69.88;101927.09;4977671;28;103678;-55
2022/10/11 10:49:27;;;;;;;21.20;20.05;;;;;;;17.42;69.78;101916.97;4994050;28;102397;-56
2022/10/11 10:52:05;;;;;;;24.73;21.83;;;;;;;17.42;66.54;101912.28;4987531;28;103057;-57
2022/10/11 10:54:46;;;;;;;23.13;21.47;;;;;;;17.35;67.32;101914.56;4985458;28;102368;-57
2022/10/11 10:57:21;;;;;;;24.23;22.38;;;;;;;17.21;59.81;101910.81;4981780;28;102978;-56
2022/10/11 11:00:04;;;;;;;31.27;29.50;;;;;;;17.22;63.74;101906.94;4984684;28;102405;-56
2022/10/11 11:02:38;;;;;;;30.52;28.73;;;;;;;17.16;63.49;101908.91;4982555;28;104335;-57
2022/10/11 11:05:17;;;;;;;38.08;35.65;;;;;;;17.15;59.35;101898.19;4983600;28;102693;-59
2022/10/11 11:07:52;;;;;;;38.50;35.78;;;;;;;17.12;61.20;101904.25;4985575;28;102214;-59
2022/10/11 11:10:22;;;;;;;36.45;33.88;;;;;;;17.13;61.89;101898.50;4995738;28;102064;-59
2022/10/11 11:13:05;;;;;;;44.50;41.53;;;;;;;17.08;58.14;101903.19;4989274;28;104114;-59
2022/10/11 11:15:38;;;;;;;33.20;31.20;;;;;;;17.08;61.25;101894.94;4978328;28;103970;-58